KCEY/CEY METAR and TAF weather

Enter ICAO airport designator
Station Type Date Time Source
KCEY METAR 2021/07/24 20:55 UTC NOAA

KCEY 242055Z AUTO 17003KT 10SM SCT050 33/23 A3000 RMK AO1


Station Type Date Time Source
KCEY Decoded METAR 2021/07/24 20:55 UTC NOAA

Station name not available
Jul 24, 2021 - 04:55 PM EDT / 2021.07.24 2055 UTC
Wind: from the S (170 degrees) at 3 MPH (3 KT):0
Visibility: 10 mile(s):0
Sky conditions: partly cloudy
Temperature: 91 F (33 C)
Heat index: 99.1 F (37.3 C):1
Dew Point: 73 F (23 C)
Relative Humidity: 55%
Pressure (altimeter): 30 in. Hg (1015 hPa)
ob: KCEY 242055Z AUTO 17003KT 10SM SCT050 33/23 A3000 RMK AO1
cycle: 21

Station Type Date Time Source
KCEY TAF UTC NOAA

Error!

Example: see airport list